Cleveland, Utah
Current Conditions -  °F | °C
As of 9:53 PM on Thursday 30 Oct 2014 (Local Time) from KPUC Reporting Station
Clear Clear  
Wind Chill: 41°   Ceiling: Unl
Heat Index: 46°   Visibility: 10mi
Dew Point: 18°   Wind: 9mph
Humidity: 33%   Direction: 360°N
Pressure: 30.26"   Gusts: NA
Location:  39.35°N, 110.85°W
Report Text: KPUC 310353Z AUTO 36008KT 10SM CLR 08/M08 A3026 RMK AO2 SLP236 T00781078 TSNO
Loading
Personal Weather Stations






























Interactive Weather Map
Tropical Storm Tracking
New forecast layout! Learn more

10-Day Weather Forecast

Advertisements
Track Severe Weather on mobile